Time;durP1;ratioP1;P1;durP2;ratioP2;P2;SDS_P1;SDS_P2;PMS_P1;PMS_P2;Temp;Humidity;BMP_temperature;BMP_pressure;BME280_temperature;BME280_humidity;BME280_pressure;Samples;Min_cycle;Max_cycle;Signal;HPM_P1;HPM_P2
2022/09/08 00:02:05;;;;;;;6.28;2.15;;;;;;;15.63;41.02;100787.22;1562043;84;5001465;-79
2022/09/08 00:04:51;;;;;;;5.17;1.95;;;;;;;15.64;41.10;100792.83;1671661;84;20916;-79
2022/09/08 00:07:38;;;;;;;7.25;2.47;;;;;;;15.64;41.15;100789.77;1670536;85;20949;-79
2022/09/08 00:10:23;;;;;;;4.95;2.12;;;;;;;15.65;41.16;100793.23;1670670;85;26815;-79
2022/09/08 00:13:08;;;;;;;2.87;2.00;;;;;;;15.63;41.17;100788.08;1670692;85;20901;-79
2022/09/08 00:15:54;;;;;;;4.17;2.05;;;;;;;15.62;41.23;100780.30;1670782;85;21425;-79
2022/09/08 00:18:41;;;;;;;3.27;2.10;;;;;;;15.58;41.26;100779.59;1670660;85;20932;-79
2022/09/08 00:21:28;;;;;;;5.97;2.25;;;;;;;15.53;41.30;100777.10;1668296;85;20953;-79
2022/09/08 00:24:12;;;;;;;4.40;2.20;;;;;;;15.50;41.35;100771.99;1670647;84;20956;-79
2022/09/08 00:26:57;;;;;;;3.70;2.08;;;;;;;15.48;41.38;100770.34;1669967;85;20948;-79
2022/09/08 00:29:42;;;;;;;3.22;2.20;;;;;;;15.48;41.43;100780.77;1660630;85;21067;-79
2022/09/08 00:32:27;;;;;;;7.70;2.72;;;;;;;15.48;41.42;100779.01;1668468;85;21610;-79
2022/09/08 00:35:14;;;;;;;5.62;2.08;;;;;;;15.45;41.48;100777.81;1668836;85;21635;-79
2022/09/08 00:37:59;;;;;;;5.70;2.52;;;;;;;15.44;41.51;100773.50;1664024;85;21094;-79
2022/09/08 00:40:46;;;;;;;6.12;2.47;;;;;;;15.42;41.54;100777.91;1667412;85;21475;-79
2022/09/08 00:43:41;;;;;;;6.62;2.15;;;;;;;15.41;41.57;100783.17;1670103;85;21035;-79
2022/09/08 00:46:40;;;;;;;4.33;2.10;;;;;;;15.39;41.60;100788.44;1668404;85;21036;-79
2022/09/08 00:49:26;;;;;;;6.28;2.67;;;;;;;15.35;41.62;100779.47;1667586;85;20972;-79
2022/09/08 00:52:11;;;;;;;5.50;2.20;;;;;;;15.33;41.71;100781.27;1668319;84;21138;-79
2022/09/08 00:54:56;;;;;;;3.80;2.12;;;;;;;15.31;41.70;100776.11;1668078;85;21111;-79
2022/09/08 00:57:41;;;;;;;4.55;2.42;;;;;;;15.25;41.74;100768.49;1668523;85;21067;-79
2022/09/08 01:00:27;;;;;;;3.50;2.40;;;;;;;15.22;41.79;100768.14;1668013;85;21555;-79
2022/09/08 01:03:18;;;;;;;3.70;2.08;;;;;;;15.20;41.83;100760.83;1657163;85;21710;-79
2022/09/08 01:06:21;;;;;;;3.58;2.62;;;;;;;15.17;41.83;100752.27;1666356;85;21116;-79
2022/09/08 01:15:27;;;;;;;6.22;2.58;;;;;;;15.09;41.95;100758.17;1667293;85;21092;-78
2022/09/08 01:18:13;;;;;;;8.15;2.50;;;;;;;15.05;42.00;100753.54;1668986;85;21035;-78
2022/09/08 01:21:06;;;;;;;6.67;2.45;;;;;;;15.04;42.04;100749.68;1669090;85;21076;-78
2022/09/08 01:24:18;;;;;;;9.53;2.80;;;;;;;15.03;42.05;100746.67;1668231;85;21032;-78
2022/09/08 01:27:14;;;;;;;10.32;2.83;;;;;;;14.95;42.08;100741.71;1664601;85;21451;-79
2022/09/08 01:30:04;;;;;;;8.93;2.62;;;;;;;14.89;42.12;100736.25;1667929;85;27803;-79
2022/09/08 01:32:50;;;;;;;6.12;2.80;;;;;;;14.88;42.17;100734.99;1655647;85;21051;-79
2022/09/08 01:35:38;;;;;;;3.58;2.30;;;;;;;14.86;42.22;100738.09;1668678;85;21645;-79
2022/09/08 01:38:23;;;;;;;4.45;2.50;;;;;;;14.82;42.25;100730.83;1663366;85;21055;-79
2022/09/08 01:41:09;;;;;;;7.97;2.83;;;;;;;14.79;42.31;100728.77;1668243;85;21475;-79
2022/09/08 01:43:54;;;;;;;9.33;3.40;;;;;;;14.71;42.36;100727.71;1668798;85;21423;-79
2022/09/08 01:46:39;;;;;;;3.77;2.75;;;;;;;14.66;42.40;100728.30;1669466;84;22617;-79
2022/09/08 01:49:24;;;;;;;6.03;2.55;;;;;;;14.64;42.46;100734.45;1668874;85;21084;-79
2022/09/08 01:52:09;;;;;;;5.53;2.42;;;;;;;14.61;42.53;100738.00;1668656;85;21044;-79
2022/09/08 01:54:54;;;;;;;5.70;3.25;;;;;;;14.62;42.54;100728.00;1668585;85;21111;-79
2022/09/08 01:57:40;;;;;;;5.45;2.83;;;;;;;14.63;42.58;100732.75;1655255;85;21127;-79
2022/09/08 02:00:25;;;;;;;8.65;3.00;;;;;;;14.61;42.63;100731.49;1668581;84;21475;-79
2022/09/08 02:03:12;;;;;;;7.80;3.00;;;;;;;14.61;42.67;100739.75;1662086;85;21516;-79
2022/09/08 02:06:02;;;;;;;4.10;2.92;;;;;;;14.58;42.69;100733.74;1659596;84;21559;-79
2022/09/08 02:08:55;;;;;;;4.62;3.10;;;;;;;14.54;42.75;100726.11;1666885;85;21059;-79
2022/09/08 02:11:40;;;;;;;7.40;3.05;;;;;;;14.44;42.79;100723.38;1668855;85;21139;-79
2022/09/08 02:14:26;;;;;;;5.10;2.65;;;;;;;14.40;42.88;100715.23;1668907;85;21627;-79
2022/09/08 02:17:12;;;;;;;7.92;3.05;;;;;;;14.40;42.89;100708.72;1668619;85;21044;-79
2022/09/08 02:19:58;;;;;;;6.20;3.45;;;;;;;14.37;42.98;100709.67;1666280;85;21076;-78
2022/09/08 02:22:43;;;;;;;7.53;2.95;;;;;;;14.35;43.00;100709.31;1668583;85;21371;-78
2022/09/08 02:25:29;;;;;;;5.72;2.87;;;;;;;14.33;43.08;100718.46;1658276;84;21048;-78
2022/09/08 02:28:15;;;;;;;7.53;3.55;;;;;;;14.35;43.12;100714.52;1668424;85;21548;-79
2022/09/08 02:31:03;;;;;;;5.58;3.27;;;;;;;14.33;43.15;100711.95;1668529;84;21125;-79
2022/09/08 02:33:49;;;;;;;3.52;2.52;;;;;;;14.30;43.22;100708.15;1651446;85;21555;-79
2022/09/08 02:36:34;;;;;;;5.12;3.70;;;;;;;14.31;43.30;100707.25;1667694;85;21087;-79
2022/09/08 02:39:20;;;;;;;6.03;3.02;;;;;;;14.31;43.31;100707.25;1668573;85;21050;-79
2022/09/08 02:42:07;;;;;;;5.30;3.35;;;;;;;14.31;43.39;100711.59;1668850;85;21567;-79
2022/09/08 02:44:52;;;;;;;7.45;3.60;;;;;;;14.29;43.45;100712.09;1668768;85;21044;-79
2022/09/08 02:47:37;;;;;;;6.25;3.25;;;;;;;14.30;43.49;100710.75;1668875;84;21475;-79
2022/09/08 02:50:22;;;;;;;8.40;3.70;;;;;;;14.33;43.55;100719.77;1668914;85;21040;-79
2022/09/08 02:53:09;;;;;;;5.85;3.10;;;;;;;14.33;43.58;100715.86;1668529;85;21380;-79
2022/09/08 02:55:54;;;;;;;8.70;3.67;;;;;;;14.31;43.63;100711.16;1661069;85;20974;-78
2022/09/08 02:58:39;;;;;;;5.10;3.15;;;;;;;14.31;43.70;100712.91;1668941;85;21437;-78
2022/09/08 03:01:24;;;;;;;4.03;2.80;;;;;;;14.33;43.72;100702.00;1669637;85;21058;-78
2022/09/08 03:04:10;;;;;;;10.20;3.37;;;;;;;14.33;43.78;100700.25;1659041;85;21091;-78
2022/09/08 03:06:55;;;;;;;5.00;3.85;;;;;;;14.35;43.80;100695.00;1666260;85;21487;-78
2022/09/08 03:09:40;;;;;;;3.50;2.62;;;;;;;14.36;43.84;100694.11;1665204;85;21126;-78
2022/09/08 03:12:26;;;;;;;6.30;3.52;;;;;;;14.36;43.90;100688.45;1668616;84;21158;-78
2022/09/08 03:15:12;;;;;;;6.80;3.30;;;;;;;14.38;43.86;100681.91;1668604;85;21308;-78
2022/09/08 03:17:58;;;;;;;8.18;3.55;;;;;;;14.38;43.86;100681.91;1668002;85;21517;-78
2022/09/08 03:20:44;;;;;;;6.25;4.00;;;;;;;14.38;44.01;100680.61;1655249;85;21572;-79
2022/09/08 03:23:31;;;;;;;;;;;;;;;14.35;44.04;100672.89;1670812;84;21745;-78
2022/09/08 03:26:24;;;;;;;15.15;3.17;;;;;;;14.32;44.33;100667.33;1667019;85;27265;-79
2022/09/08 03:29:06;;;;;;;5.60;3.17;;;;;;;14.30;44.09;100665.67;1676964;84;20960;-79
2022/09/08 03:31:51;;;;;;;5.30;3.20;;;;;;;14.29;44.15;100673.08;1670308;84;21052;-79
2022/09/08 03:34:37;;;;;;;6.30;3.22;;;;;;;14.22;44.18;100669.81;1668585;85;21111;-79
2022/09/08 03:37:22;;;;;;;7.97;3.52;;;;;;;14.23;44.24;100674.11;1668969;85;21566;-79
2022/09/08 03:40:12;;;;;;;9.13;3.37;;;;;;;14.25;44.28;100674.92;1666918;85;21076;-79
2022/09/08 03:42:57;;;;;;;10.35;2.85;;;;;;;14.23;44.30;100674.11;1668682;85;21506;-79
2022/09/08 03:45:46;;;;;;;7.78;3.40;;;;;;;14.21;44.35;100672.00;1668782;85;21036;-79
2022/09/08 03:48:32;;;;;;;7.72;3.58;;;;;;;14.14;44.39;100672.64;1669108;84;21059;-79
2022/09/08 03:51:22;;;;;;;6.33;3.70;;;;;;;14.13;44.48;100672.69;1668831;85;21075;-79
2022/09/08 03:57:15;;;;;;;6.42;3.30;;;;;;;14.04;44.57;100653.45;1659759;85;21059;-79
2022/09/08 04:00:01;;;;;;;6.85;3.15;;;;;;;14.04;44.55;100660.80;1669952;84;21512;-78
2022/09/08 04:02:45;;;;;;;9.63;4.60;;;;;;;14.02;44.63;100660.48;1670395;84;20980;-78
2022/09/08 04:05:31;;;;;;;9.13;3.33;;;;;;;14.01;44.71;100658.77;1668328;84;20956;-78
2022/09/08 04:08:15;;;;;;;8.45;3.55;;;;;;;13.99;44.74;100654.91;1670387;84;20904;-78
2022/09/08 04:11:01;;;;;;;6.85;3.45;;;;;;;14.01;44.77;100655.72;1669988;84;20956;-78
2022/09/08 04:13:46;;;;;;;5.10;3.42;;;;;;;14.01;44.82;100661.38;1670714;84;20932;-78
2022/09/08 04:16:31;;;;;;;5.67;3.52;;;;;;;13.99;44.85;100658.81;1666469;84;21000;-78
2022/09/08 04:19:17;;;;;;;6.17;3.55;;;;;;;13.97;44.89;100648.91;1669377;85;37020;-82
2022/09/08 04:22:02;;;;;;;5.33;3.47;;;;;;;13.93;44.96;100650.34;1670352;84;20913;-79
2022/09/08 04:24:48;;;;;;;6.28;3.70;;;;;;;13.91;45.01;100657.73;1670017;84;20956;-79
2022/09/08 04:27:33;;;;;;;10.65;3.55;;;;;;;13.94;45.05;100654.64;1665607;85;21326;-78
2022/09/08 04:30:18;;;;;;;6.30;3.50;;;;;;;13.96;45.14;100660.20;1667340;84;21150;-78
2022/09/08 04:33:03;;;;;;;6.25;3.55;;;;;;;14.00;45.15;100666.17;1669987;84;245146;-77
2022/09/08 04:35:48;;;;;;;8.25;3.70;;;;;;;14.02;45.19;100664.37;1667159;84;21037;-79
2022/09/08 04:38:33;;;;;;;4.85;3.50;;;;;;;14.06;45.23;100668.56;1663582;85;21560;-79
2022/09/08 04:41:18;;;;;;;7.08;3.92;;;;;;;14.09;45.27;100666.72;1652775;85;21029;-79
2022/09/08 04:44:04;;;;;;;6.35;3.45;;;;;;;14.12;45.30;100670.98;1658394;84;21131;-79
2022/09/08 04:46:50;;;;;;;6.20;3.40;;;;;;;14.12;45.34;100673.58;1663285;85;22415;-80
2022/09/08 04:49:34;;;;;;;11.95;3.80;;;;;;;14.13;45.41;100678.73;1668427;85;21168;-79
2022/09/08 04:52:24;;;;;;;7.15;3.67;;;;;;;14.18;45.49;100683.80;1667405;84;21059;-78
2022/09/08 04:55:08;;;;;;;13.25;3.47;;;;;;;14.20;45.49;100678.95;1672978;84;21082;-78
2022/09/08 04:57:53;;;;;;;12.23;3.43;;;;;;;14.24;45.51;100679.27;1674767;84;21059;-78
2022/09/08 05:00:38;;;;;;;11.78;3.40;;;;;;;14.29;45.59;100683.03;1666654;84;20979;-78
2022/09/08 05:03:23;;;;;;;13.05;4.05;;;;;;;14.33;45.67;100678.59;1667713;84;21083;-78
2022/09/08 05:06:13;;;;;;;11.78;4.30;;;;;;;14.34;45.65;100674.64;1671831;84;21079;-78
2022/09/08 05:08:59;;;;;;;22.62;4.12;;;;;;;14.39;45.67;100677.11;1667700;85;21067;-78
2022/09/08 05:11:44;;;;;;;8.03;4.00;;;;;;;14.42;45.73;100675.30;1662524;85;20968;-78
2022/09/08 05:14:29;;;;;;;16.02;3.72;;;;;;;14.46;45.71;100676.91;1669848;85;20936;-78
2022/09/08 05:17:14;;;;;;;6.12;4.12;;;;;;;14.49;45.79;100682.46;1668562;85;20971;-78
2022/09/08 05:19:59;;;;;;;5.70;4.22;;;;;;;14.57;45.87;100681.74;1669799;85;21303;-78
2022/09/08 05:22:44;;;;;;;6.50;3.60;;;;;;;14.58;45.90;100684.75;1669561;85;20912;-78
2022/09/08 05:25:28;;;;;;;7.70;4.10;;;;;;;14.61;45.94;100673.39;1664968;84;20916;-78
2022/09/08 05:28:13;;;;;;;13.38;4.00;;;;;;;14.69;45.96;100678.75;1663832;85;21488;-78
2022/09/08 05:31:00;;;;;;;6.47;3.37;;;;;;;14.74;46.01;100678.61;1652613;85;20929;-78
2022/09/08 05:33:46;;;;;;;7.47;3.67;;;;;;;14.81;46.05;100678.36;1670973;84;20960;-78
2022/09/08 05:36:34;;;;;;;12.33;3.47;;;;;;;14.80;46.01;100684.92;1668655;84;20949;-77
2022/09/08 05:39:19;;;;;;;7.47;4.22;;;;;;;14.83;46.08;100683.52;1668806;84;21031;-78
2022/09/08 05:42:04;;;;;;;9.20;3.75;;;;;;;14.84;46.12;100678.72;1667137;84;21061;-77
2022/09/08 05:44:50;;;;;;;9.35;4.47;;;;;;;14.87;46.13;100690.33;1668904;84;21079;-77
2022/09/08 05:47:35;;;;;;;9.90;4.05;;;;;;;14.89;46.19;100689.83;1666773;84;21111;-78
2022/09/08 05:50:20;;;;;;;6.22;3.45;;;;;;;14.93;46.22;100704.45;1665443;84;21123;-79
2022/09/08 05:53:05;;;;;;;8.50;4.30;;;;;;;14.98;46.22;100706.91;1657843;84;21483;-78
2022/09/08 05:56:03;;;;;;;9.38;3.52;;;;;;;15.06;46.29;100714.03;1662103;85;21071;-78
2022/09/08 05:58:54;;;;;;;5.67;3.98;;;;;;;15.08;46.25;100707.83;1667996;84;21095;-79
2022/09/08 06:01:39;;;;;;;9.35;4.17;;;;;;;15.13;46.27;100717.65;1665401;84;21486;-78
2022/09/08 06:04:24;;;;;;;8.28;4.00;;;;;;;15.24;46.38;100712.08;1675344;84;22120;-77
2022/09/08 06:07:09;;;;;;;8.43;4.10;;;;;;;15.32;46.36;100706.62;1667644;84;21044;-76
2022/09/08 06:09:55;;;;;;;11.20;4.33;;;;;;;15.39;46.40;100709.41;1667715;84;21067;-79
2022/09/08 06:12:40;;;;;;;26.95;5.25;;;;;;;15.42;46.40;100702.34;1667270;84;21107;-75
2022/09/08 06:15:25;;;;;;;7.20;3.77;;;;;;;15.46;46.45;100698.73;1667301;84;21162;-73
2022/09/08 06:18:10;;;;;;;9.08;4.10;;;;;;;15.49;46.44;100694.71;1667940;85;21397;-74
2022/09/08 06:20:56;;;;;;;9.03;3.95;;;;;;;15.57;46.54;100696.23;1656271;84;21103;-74
2022/09/08 06:23:42;;;;;;;7.83;4.35;;;;;;;15.62;46.48;100704.70;1666347;84;21139;-74
2022/09/08 06:26:44;;;;;;;7.67;3.45;;;;;;;15.63;46.49;100703.36;1670402;84;21840;-76
2022/09/08 06:29:59;;;;;;;6.45;3.90;;;;;;;15.69;46.54;100716.62;1661462;85;20952;-76
2022/09/08 06:33:04;;;;;;;7.50;3.83;;;;;;;15.74;46.48;100713.41;1658089;85;21533;-75
2022/09/08 06:36:12;;;;;;;6.03;3.65;;;;;;;15.74;46.56;100699.91;1668876;84;21429;-78
2022/09/08 06:39:02;;;;;;;11.48;4.00;;;;;;;15.76;46.58;100692.89;1647051;84;21410;-75
2022/09/08 06:41:51;;;;;;;12.78;4.20;;;;;;;15.75;46.75;100689.03;1662965;84;20924;-73
2022/09/08 06:44:38;;;;;;;6.37;3.90;;;;;;;15.74;46.77;100689.94;1654649;85;20938;-73
2022/09/08 06:47:29;;;;;;;9.40;4.22;;;;;;;15.69;46.81;100683.58;1668215;84;20976;-70
2022/09/08 06:50:16;;;;;;;8.20;3.77;;;;;;;15.67;46.78;100682.79;1664045;85;20937;-70
2022/09/08 06:53:06;;;;;;;7.25;4.00;;;;;;;15.66;46.82;100687.60;1670406;83;20933;-70
2022/09/08 06:56:15;;;;;;;8.68;4.17;;;;;;;15.63;46.82;100679.04;1670796;85;21429;-70
2022/09/08 06:59:24;;;;;;;8.10;4.25;;;;;;;15.63;46.88;100684.25;1655370;86;20969;-70
2022/09/08 07:02:20;;;;;;;5.75;4.10;;;;;;;15.67;46.90;100685.39;1651996;85;20911;-70
2022/09/08 07:05:31;;;;;;;9.15;4.17;;;;;;;15.69;46.89;100680.98;1659897;85;20940;-70
2022/09/08 07:08:27;;;;;;;8.55;4.62;;;;;;;15.76;46.90;100672.48;1656977;85;20959;-70
2022/09/08 07:11:47;;;;;;;8.38;3.83;;;;;;;15.79;46.83;100671.07;1660050;85;20956;-70
2022/09/08 07:15:11;;;;;;;7.42;3.75;;;;;;;15.79;46.88;100670.61;1670535;85;20913;-70
2022/09/08 07:18:22;;;;;;;6.00;3.70;;;;;;;15.80;46.91;100671.47;1665722;86;20953;-70
2022/09/08 07:21:32;;;;;;;7.37;3.62;;;;;;;15.82;46.90;100685.30;1657743;86;21505;-70
2022/09/08 07:24:21;;;;;;;10.00;4.03;;;;;;;15.81;46.90;100680.53;1669005;84;21313;-70
2022/09/08 07:27:10;;;;;;;11.43;4.03;;;;;;;15.83;46.95;100665.69;1662786;84;20913;-70
2022/09/08 07:29:59;;;;;;;8.43;3.95;;;;;;;15.83;47.03;100655.25;1647044;85;20934;-70
2022/09/08 07:32:58;;;;;;;12.65;4.33;;;;;;;15.84;47.13;100644.37;1681651;83;21498;-70
2022/09/08 07:35:51;;;;;;;8.33;4.45;;;;;;;15.79;47.35;100638.02;1630412;86;20965;-71
2022/09/08 07:38:55;;;;;;;9.10;4.10;;;;;;;15.49;47.91;100638.68;1630141;86;20921;-70
2022/09/08 07:42:00;;;;;;;6.15;4.42;;;;;;;15.26;48.20;100629.52;1671056;84;21583;-70
2022/09/08 07:44:40;;;;;;;6.55;4.35;;;;;;;15.06;48.34;100639.34;1670991;84;21410;-70
2022/09/08 07:48:05;;;;;;;9.80;4.50;;;;;;;15.03;48.63;100639.91;1667335;84;20942;-70
2022/09/08 07:51:01;;;;;;;8.20;4.03;;;;;;;15.10;48.87;100642.22;1673773;84;20973;-70
2022/09/08 07:54:09;;;;;;;8.48;4.20;;;;;;;15.14;48.92;100644.27;1664483;86;21515;-70
2022/09/08 07:57:09;;;;;;;6.30;4.12;;;;;;;15.20;49.12;100648.81;1654352;85;21400;-70
2022/09/08 08:00:10;;;;;;;8.48;4.50;;;;;;;15.28;49.32;100646.41;1651042;85;21036;-70
2022/09/08 08:03:19;;;;;;;9.70;4.58;;;;;;;15.29;49.36;100648.95;1653410;86;21067;-70
2022/09/08 08:06:55;;;;;;;;;;;;;;;;;;;;;
2022/09/08 08:09:58;;;;;;;7.33;3.77;;;;;;;15.29;49.89;100639.83;1640052;84;21048;-70
2022/09/08 08:13:07;;;;;;;6.30;4.15;;;;;;;15.29;50.02;100633.31;1641541;85;21026;-70
2022/09/08 08:15:57;;;;;;;7.60;3.90;;;;;;;15.32;50.05;100633.66;1662866;85;21044;-70
2022/09/08 08:18:56;;;;;;;13.43;4.60;;;;;;;15.40;50.14;100625.98;1659141;85;21568;-71
2022/09/08 08:21:48;;;;;;;6.80;4.03;;;;;;;15.51;50.47;100632.11;1645021;86;21582;-70
2022/09/08 08:24:54;;;;;;;8.78;4.25;;;;;;;15.65;50.41;100638.98;1667957;84;21143;-70
2022/09/08 08:27:50;;;;;;;10.08;5.28;;;;;;;15.84;50.47;100630.88;1663657;84;21708;-70
2022/09/08 08:30:40;;;;;;;12.55;4.55;;;;;;;16.07;50.48;100630.02;1667859;83;21131;-70
2022/09/08 08:33:33;;;;;;;6.25;3.92;;;;;;;16.23;50.48;100637.62;1668033;85;21096;-70
2022/09/08 08:36:22;;;;;;;7.15;4.47;;;;;;;16.33;50.56;100634.20;1667154;84;21060;-70
2022/09/08 08:39:20;;;;;;;8.25;4.28;;;;;;;16.43;50.60;100632.92;1671731;84;21114;-70
2022/09/08 08:42:17;;;;;;;18.82;4.70;;;;;;;16.52;50.60;100631.70;1662994;85;21019;-70
2022/09/08 08:45:25;;;;;;;7.45;4.17;;;;;;;16.59;50.60;100629.25;1667984;85;21060;-71
2022/09/08 08:49:01;;;;;;;13.35;4.00;;;;;;;16.66;50.68;100620.25;1644945;85;21093;-73
2022/09/08 08:52:14;;;;;;;11.73;4.03;;;;;;;16.77;50.71;100620.66;1667552;84;21097;-73
2022/09/08 08:55:28;;;;;;;10.45;4.12;;;;;;;16.91;50.72;100616.17;1668346;84;21051;-72
2022/09/08 08:58:45;;;;;;;7.47;4.12;;;;;;;17.03;50.68;100618.73;1668663;84;21115;-72
2022/09/08 09:01:44;;;;;;;14.75;4.03;;;;;;;17.15;50.70;100620.81;1667037;84;21040;-72
2022/09/08 09:05:02;;;;;;;10.40;4.53;;;;;;;17.31;50.71;100608.75;1667670;85;21056;-72
2022/09/08 09:07:56;;;;;;;15.28;4.25;;;;;;;17.57;50.73;100614.60;1668048;85;21042;-72
2022/09/08 09:11:01;;;;;;;9.90;4.28;;;;;;;17.91;50.72;100613.46;1666872;84;21409;-73
2022/09/08 09:14:13;;;;;;;5.28;4.00;;;;;;;18.28;50.63;100622.18;1669135;84;21040;-73
2022/09/08 09:17:10;;;;;;;7.03;4.15;;;;;;;18.54;50.52;100613.92;1634617;85;21111;-73
2022/09/08 09:20:23;;;;;;;6.25;4.05;;;;;;;18.85;50.43;100611.95;1667790;84;21027;-73
2022/09/08 09:23:40;;;;;;;13.53;4.50;;;;;;;19.17;50.51;100610.31;1668865;84;21051;-73
2022/09/08 09:26:30;;;;;;;10.25;4.47;;;;;;;19.42;50.22;100612.48;1666609;84;21388;-73
2022/09/08 09:29:19;;;;;;;9.43;4.83;;;;;;;19.64;50.09;100621.41;1688836;84;20957;-73
2022/09/08 09:32:37;;;;;;;9.75;4.10;;;;;;;19.86;49.78;100614.52;1689431;84;20957;-72
2022/09/08 09:35:39;;;;;;;17.23;5.20;;;;;;;20.05;49.65;100613.42;1690518;83;20946;-73
2022/09/08 09:39:03;;;;;;;9.50;4.60;;;;;;;20.28;49.66;100612.59;1689449;84;21044;-73
2022/09/08 09:42:11;;;;;;;10.70;4.65;;;;;;;20.47;49.49;100605.39;1693582;83;21114;-73
2022/09/08 09:45:35;;;;;;;16.07;4.65;;;;;;;20.59;49.17;100602.53;1687989;83;21020;-73
2022/09/08 09:49:00;;;;;;;7.20;4.12;;;;;;;20.64;48.95;100603.11;1687171;84;21457;-73
2022/09/08 09:52:02;;;;;;;8.00;4.37;;;;;;;20.68;48.90;100587.08;1686963;84;21077;-73
2022/09/08 09:55:07;;;;;;;6.30;3.80;;;;;;;20.80;48.77;100581.55;1670427;84;21143;-73
2022/09/08 09:58:33;;;;;;;10.98;4.37;;;;;;;20.92;48.73;100566.36;1688256;84;21553;-73
2022/09/08 10:01:46;;;;;;;8.55;4.05;;;;;;;21.07;48.56;100572.49;1687283;84;25860;-73
2022/09/08 10:04:58;;;;;;;16.15;4.08;;;;;;;21.10;48.39;100563.95;1677396;84;21065;-73
2022/09/08 10:08:29;;;;;;;12.07;4.67;;;;;;;21.15;48.20;100570.25;1684094;84;21044;-73
2022/09/08 10:11:55;;;;;;;8.45;4.37;;;;;;;21.19;48.09;100543.30;1688297;83;21536;-72
2022/09/08 10:15:08;;;;;;;5.62;3.87;;;;;;;21.36;48.00;100544.42;1687494;83;21098;-73
2022/09/08 10:18:04;;;;;;;13.28;4.10;;;;;;;21.50;47.21;100538.31;1688172;83;21539;-73
2022/09/08 10:21:00;;;;;;;14.70;3.92;;;;;;;21.65;47.41;100535.56;1688856;83;29022;-73
2022/09/08 10:24:11;;;;;;;6.03;4.50;;;;;;;21.78;46.98;100533.00;1687397;83;20913;-73
2022/09/08 10:27:53;;;;;;;10.63;4.05;;;;;;;21.87;46.97;100523.16;1690589;84;20921;-73
2022/09/08 10:31:15;;;;;;;7.45;3.85;;;;;;;21.97;45.08;100530.84;1690360;84;21596;-73
2022/09/08 10:34:41;;;;;;;11.93;4.37;;;;;;;22.09;46.32;100529.23;1690978;84;21496;-73
2022/09/08 10:37:53;;;;;;;12.24;4.55;;;;;;;22.19;46.49;100530.33;1651425;84;10001165;-73
2022/09/08 10:40:45;;;;;;;17.98;4.62;;;;;;;22.30;46.27;100528.31;1689865;83;20952;-73
2022/09/08 10:44:02;;;;;;;16.60;4.00;;;;;;;22.37;44.93;100534.36;1676569;83;378458;-73
2022/09/08 10:47:04;;;;;;;8.93;4.35;;;;;;;22.43;45.79;100529.16;1686638;85;20917;-73
2022/09/08 10:50:05;;;;;;;12.73;4.00;;;;;;;22.48;45.56;100531.48;1670434;85;20933;-73
2022/09/08 10:53:29;;;;;;;11.60;3.40;;;;;;;22.51;45.45;100524.22;1670704;85;20974;-73
2022/09/08 10:56:21;;;;;;;22.27;4.22;;;;;;;22.60;45.48;100531.52;1665826;83;20978;-73
2022/09/08 10:59:35;;;;;;;9.33;4.55;;;;;;;22.75;45.26;100527.84;1670203;85;20921;-73
2022/09/08 11:02:43;;;;;;;10.50;4.45;;;;;;;22.75;44.46;100525.68;1670339;85;20965;-73
2022/09/08 11:06:00;;;;;;;12.37;4.65;;;;;;;22.75;44.22;100545.45;1665325;85;21382;-72
2022/09/08 11:09:07;;;;;;;13.05;3.75;;;;;;;22.76;43.89;100543.19;1687416;83;20961;-73
2022/09/08 11:12:09;;;;;;;13.85;4.28;;;;;;;22.90;43.55;100535.66;1672083;85;20937;-73
2022/09/08 11:15:11;;;;;;;11.60;3.90;;;;;;;22.92;43.85;100541.67;1669819;85;20961;-73
2022/09/08 11:18:03;;;;;;;13.53;4.30;;;;;;;22.94;43.50;100534.03;1661796;84;21523;-73
2022/09/08 11:20:53;;;;;;;11.08;4.00;;;;;;;23.06;43.46;100552.13;1675137;84;331592;-73
2022/09/08 11:23:52;;;;;;;21.77;3.75;;;;;;;23.06;42.57;100533.19;1686627;84;20938;-73
2022/09/08 11:27:06;;;;;;;11.15;3.50;;;;;;;22.99;43.17;100524.00;1688542;84;20993;-73
2022/09/08 11:30:11;;;;;;;12.07;4.22;;;;;;;22.88;42.45;100507.23;1690780;83;20969;-73
2022/09/08 11:33:33;;;;;;;6.12;3.58;;;;;;;22.76;42.59;100503.64;1690746;83;20969;-73
2022/09/08 11:37:05;;;;;;;10.93;3.62;;;;;;;22.75;42.56;100517.77;1690529;84;20940;-73
2022/09/08 11:40:10;;;;;;;16.85;4.17;;;;;;;22.75;42.34;100506.75;1688417;84;21520;-73
2022/09/08 11:43:28;;;;;;;12.13;4.20;;;;;;;22.82;42.09;100504.58;1686981;84;21309;-73
2022/09/08 11:47:01;;;;;;;14.18;4.55;;;;;;;22.90;42.10;100511.45;1690348;84;21469;-73
2022/09/08 11:50:17;;;;;;;12.47;4.30;;;;;;;22.94;42.07;100502.38;1690101;83;20913;-73
2022/09/08 11:53:35;;;;;;;10.50;3.67;;;;;;;22.98;41.89;100495.95;1690204;84;20929;-73
2022/09/08 11:57:02;;;;;;;12.70;4.08;;;;;;;23.08;41.78;100492.20;1685422;83;20925;-73
2022/09/08 12:00:13;;;;;;;12.80;3.95;;;;;;;23.18;41.68;100492.39;1687195;84;20973;-73
2022/09/08 12:03:28;;;;;;;13.88;4.00;;;;;;;23.35;41.62;100473.58;1683227;83;20954;-72
2022/09/08 12:06:40;;;;;;;9.00;3.95;;;;;;;23.52;40.95;100467.91;1689101;83;20927;-73
2022/09/08 12:09:33;;;;;;;12.30;4.42;;;;;;;23.62;41.14;100464.16;1688659;84;21005;-73
2022/09/08 12:12:38;;;;;;;10.45;4.55;;;;;;;23.63;41.10;100465.36;1672347;84;20953;-73
2022/09/08 12:15:35;;;;;;;23.60;4.10;;;;;;;23.64;40.90;100459.61;1690922;84;21450;-73
2022/09/08 12:18:40;;;;;;;12.93;5.05;;;;;;;23.66;41.00;100454.58;1690741;84;21422;-74
2022/09/08 12:21:42;;;;;;;9.38;4.10;;;;;;;23.68;40.65;100445.23;1689592;84;20970;-74
2022/09/08 12:24:50;;;;;;;16.90;4.12;;;;;;;23.69;40.85;100445.12;1688145;84;22087;-73
2022/09/08 12:28:01;;;;;;;16.50;3.92;;;;;;;23.72;40.66;100442.73;1690810;83;20961;-73
2022/09/08 12:31:20;;;;;;;15.80;4.03;;;;;;;23.72;40.42;100421.61;1681417;84;21792;-73
2022/09/08 12:34:54;;;;;;;15.15;3.72;;;;;;;23.65;40.25;100429.14;1686596;83;21545;-73
2022/09/08 12:37:50;;;;;;;11.35;4.53;;;;;;;23.61;40.20;100421.08;1687739;83;20957;-73
2022/09/08 12:40:57;;;;;;;15.55;3.83;;;;;;;23.57;39.83;100410.37;1693612;81;20946;-73
2022/09/08 12:43:44;;;;;;;17.05;3.80;;;;;;;23.55;40.00;100404.84;1693946;83;20948;-73
2022/09/08 12:46:34;;;;;;;14.18;4.00;;;;;;;23.55;39.82;100405.69;1687116;83;20917;-73
2022/09/08 12:49:27;;;;;;;9.83;3.27;;;;;;;23.53;39.80;100401.00;1685516;84;21072;-73
2022/09/08 12:52:38;;;;;;;16.82;3.87;;;;;;;23.54;39.84;100391.28;1684116;84;21116;-73
2022/09/08 12:55:38;;;;;;;14.60;3.90;;;;;;;23.54;39.89;100398.72;1688271;84;21468;-74
2022/09/08 12:58:27;;;;;;;14.87;3.22;;;;;;;23.54;38.95;100388.16;1691624;83;21118;-73
2022/09/08 13:01:32;;;;;;;13.20;3.20;;;;;;;23.56;39.49;100396.81;1686773;83;21671;-73
2022/09/08 13:04:32;;;;;;;10.40;2.92;;;;;;;23.63;39.32;100377.41;1681140;83;21100;-73
2022/09/08 13:07:28;;;;;;;10.60;3.60;;;;;;;23.62;39.16;100362.52;1686831;84;21085;-73
2022/09/08 13:10:19;;;;;;;12.20;4.33;;;;;;;23.61;39.21;100371.40;1686077;83;21075;-73
2022/09/08 13:13:32;;;;;;;14.80;4.03;;;;;;;23.60;39.03;100360.47;1689480;83;21281;-73
2022/09/08 13:16:39;;;;;;;10.70;3.20;;;;;;;23.56;38.94;100358.53;1688461;83;21064;-72
2022/09/08 13:19:39;;;;;;;10.10;3.50;;;;;;;23.54;39.15;100352.53;1689045;83;21136;-73
2022/09/08 13:22:38;;;;;;;13.80;3.70;;;;;;;23.59;38.89;100355.67;1685633;84;21036;-72
2022/09/08 13:25:43;;;;;;;9.70;3.85;;;;;;;23.60;39.15;100348.59;1680651;84;21057;-72
2022/09/08 13:29:19;;;;;;;21.93;3.73;;;;;;;23.58;38.92;100353.15;1687137;83;21097;-72
2022/09/08 13:32:42;;;;;;;14.90;3.83;;;;;;;23.52;38.87;100349.13;1665846;84;21595;-71
2022/09/08 13:35:59;;;;;;;8.78;3.40;;;;;;;23.38;38.69;100342.73;1628904;86;21090;-71
2022/09/08 13:39:29;;;;;;;9.85;2.87;;;;;;;23.24;38.57;100339.78;1634811;86;21922;-71
2022/09/08 13:42:45;;;;;;;13.75;3.33;;;;;;;23.24;38.82;100346.86;1628979;86;21570;-72
2022/09/08 13:45:47;;;;;;;;;;;;;;;23.29;38.89;100344.73;1637396;86;21098;-73
2022/09/08 13:49:09;;;;;;;15.45;3.35;;;;;;;23.24;38.40;100343.75;1634739;86;20227;-72
2022/09/08 13:52:41;;;;;;;22.85;3.98;;;;;;;23.15;38.73;100345.73;1632966;86;21681;-72